sensor_id;sensor_type;location;lat;lon;timestamp;temperature;humidity
680;DHT22;322;48.846;9.230;2023-04-24T00:01:46;10.80;93.90
680;DHT22;322;48.846;9.230;2023-04-24T00:04:15;10.90;93.70
680;DHT22;322;48.846;9.230;2023-04-24T00:06:42;10.90;93.70
680;DHT22;322;48.846;9.230;2023-04-24T00:09:10;11.00;93.40
680;DHT22;322;48.846;9.230;2023-04-24T00:11:36;11.10;93.20
680;DHT22;322;48.846;9.230;2023-04-24T00:14:03;11.10;93.50
680;DHT22;322;48.846;9.230;2023-04-24T00:16:30;11.10;93.40
680;DHT22;322;48.846;9.230;2023-04-24T00:18:57;11.20;93.40
680;DHT22;322;48.846;9.230;2023-04-24T00:21:27;11.20;93.40
680;DHT22;322;48.846;9.230;2023-04-24T00:23:55;11.20;93.50
680;DHT22;322;48.846;9.230;2023-04-24T00:26:22;11.20;93.50
680;DHT22;322;48.846;9.230;2023-04-24T00:28:49;11.30;92.30
680;DHT22;322;48.846;9.230;2023-04-24T00:31:15;11.40;91.70
680;DHT22;322;48.846;9.230;2023-04-24T00:33:42;11.50;90.90
680;DHT22;322;48.846;9.230;2023-04-24T00:36:09;11.50;91.40
680;DHT22;322;48.846;9.230;2023-04-24T00:38:37;11.50;90.70
680;DHT22;322;48.846;9.230;2023-04-24T00:41:04;11.60;90.70
680;DHT22;322;48.846;9.230;2023-04-24T00:43:31;11.70;91.00
680;DHT22;322;48.846;9.230;2023-04-24T00:45:58;11.70;91.30
680;DHT22;322;48.846;9.230;2023-04-24T00:48:27;11.70;90.30
680;DHT22;322;48.846;9.230;2023-04-24T00:50:54;11.70;89.80
680;DHT22;322;48.846;9.230;2023-04-24T00:53:21;11.80;90.10
680;DHT22;322;48.846;9.230;2023-04-24T00:55:50;11.70;89.30
680;DHT22;322;48.846;9.230;2023-04-24T00:58:17;11.80;89.00
680;DHT22;322;48.846;9.230;2023-04-24T01:00:45;11.80;89.00
680;DHT22;322;48.846;9.230;2023-04-24T01:03:13;11.80;88.00
680;DHT22;322;48.846;9.230;2023-04-24T01:05:40;11.80;88.20
680;DHT22;322;48.846;9.230;2023-04-24T01:08:06;11.90;88.40
680;DHT22;322;48.846;9.230;2023-04-24T01:10:34;11.80;87.80
680;DHT22;322;48.846;9.230;2023-04-24T01:13:04;11.90;88.50
680;DHT22;322;48.846;9.230;2023-04-24T01:15:31;11.80;88.20
680;DHT22;322;48.846;9.230;2023-04-24T01:17:58;11.80;88.70
680;DHT22;322;48.846;9.230;2023-04-24T01:20:25;11.80;88.10
680;DHT22;322;48.846;9.230;2023-04-24T01:22:54;11.90;88.30
680;DHT22;322;48.846;9.230;2023-04-24T01:25:22;11.90;87.60
680;DHT22;322;48.846;9.230;2023-04-24T01:27:49;11.90;86.90
680;DHT22;322;48.846;9.230;2023-04-24T01:30:17;11.80;86.50
680;DHT22;322;48.846;9.230;2023-04-24T01:32:44;11.90;87.00
680;DHT22;322;48.846;9.230;2023-04-24T01:35:11;12.00;86.80
680;DHT22;322;48.846;9.230;2023-04-24T01:37:38;11.90;86.80
680;DHT22;322;48.846;9.230;2023-04-24T01:40:08;11.80;87.20
680;DHT22;322;48.846;9.230;2023-04-24T01:42:35;11.70;88.40
680;DHT22;322;48.846;9.230;2023-04-24T01:45:03;11.70;88.40
680;DHT22;322;48.846;9.230;2023-04-24T01:47:31;11.60;90.10
680;DHT22;322;48.846;9.230;2023-04-24T01:49:58;11.60;89.80
680;DHT22;322;48.846;9.230;2023-04-24T01:52:24;11.50;89.50
680;DHT22;322;48.846;9.230;2023-04-24T01:54:52;11.60;89.80
680;DHT22;322;48.846;9.230;2023-04-24T01:57:22;11.60;90.00
680;DHT22;322;48.846;9.230;2023-04-24T01:59:49;11.50;89.20
680;DHT22;322;48.846;9.230;2023-04-24T02:02:17;11.50;90.30
680;DHT22;322;48.846;9.230;2023-04-24T02:04:44;11.40;90.10
680;DHT22;322;48.846;9.230;2023-04-24T02:07:10;11.40;90.20
680;DHT22;322;48.846;9.230;2023-04-24T02:09:37;11.30;90.60
680;DHT22;322;48.846;9.230;2023-04-24T02:12:04;11.30;90.50
680;DHT22;322;48.846;9.230;2023-04-24T02:14:32;11.20;90.90
680;DHT22;322;48.846;9.230;2023-04-24T02:16:59;11.20;91.10
680;DHT22;322;48.846;9.230;2023-04-24T02:19:26;11.10;91.30
680;DHT22;322;48.846;9.230;2023-04-24T02:21:53;11.20;90.90
680;DHT22;322;48.846;9.230;2023-04-24T02:24:20;11.20;91.20
680;DHT22;322;48.846;9.230;2023-04-24T02:26:46;11.20;91.40
680;DHT22;322;48.846;9.230;2023-04-24T02:29:14;11.20;91.50
680;DHT22;322;48.846;9.230;2023-04-24T02:31:42;11.20;91.50
680;DHT22;322;48.846;9.230;2023-04-24T02:34:09;11.30;91.40
680;DHT22;322;48.846;9.230;2023-04-24T02:36:36;11.30;91.30
680;DHT22;322;48.846;9.230;2023-04-24T02:39:02;11.40;91.40
680;DHT22;322;48.846;9.230;2023-04-24T02:41:29;11.40;90.90
680;DHT22;322;48.846;9.230;2023-04-24T02:43:58;11.40;91.10
680;DHT22;322;48.846;9.230;2023-04-24T02:46:25;11.50;91.00
680;DHT22;322;48.846;9.230;2023-04-24T02:48:53;11.50;91.20
680;DHT22;322;48.846;9.230;2023-04-24T02:51:20;11.60;91.60
680;DHT22;322;48.846;9.230;2023-04-24T02:53:47;11.50;92.40
680;DHT22;322;48.846;9.230;2023-04-24T02:56:13;11.30;92.80
680;DHT22;322;48.846;9.230;2023-04-24T02:58:40;11.20;93.10
680;DHT22;322;48.846;9.230;2023-04-24T03:01:07;11.10;94.00
680;DHT22;322;48.846;9.230;2023-04-24T03:03:35;11.10;94.20
680;DHT22;322;48.846;9.230;2023-04-24T03:06:03;11.00;94.70
680;DHT22;322;48.846;9.230;2023-04-24T03:08:31;10.90;95.20
680;DHT22;322;48.846;9.230;2023-04-24T03:10:58;10.80;95.70
680;DHT22;322;48.846;9.230;2023-04-24T03:13:24;10.80;96.10
680;DHT22;322;48.846;9.230;2023-04-24T03:15:51;10.80;96.20
680;DHT22;322;48.846;9.230;2023-04-24T03:18:18;10.70;96.30
680;DHT22;322;48.846;9.230;2023-04-24T03:20:45;10.60;96.50
680;DHT22;322;48.846;9.230;2023-04-24T03:23:14;10.50;96.50
680;DHT22;322;48.846;9.230;2023-04-24T03:25:40;10.60;96.00
680;DHT22;322;48.846;9.230;2023-04-24T03:28:08;10.60;96.00
680;DHT22;322;48.846;9.230;2023-04-24T03:30:35;10.60;96.20
680;DHT22;322;48.846;9.230;2023-04-24T03:33:02;10.50;96.40
680;DHT22;322;48.846;9.230;2023-04-24T03:35:28;10.50;96.30
680;DHT22;322;48.846;9.230;2023-04-24T03:37:55;10.50;96.20
680;DHT22;322;48.846;9.230;2023-04-24T03:40:23;10.40;96.50
680;DHT22;322;48.846;9.230;2023-04-24T03:42:50;10.30;96.60
680;DHT22;322;48.846;9.230;2023-04-24T03:45:17;10.30;96.60
680;DHT22;322;48.846;9.230;2023-04-24T03:47:44;10.30;96.60
680;DHT22;322;48.846;9.230;2023-04-24T03:50:10;10.20;96.70
680;DHT22;322;48.846;9.230;2023-04-24T03:52:37;10.10;97.00
680;DHT22;322;48.846;9.230;2023-04-24T03:55:05;10.10;97.00
680;DHT22;322;48.846;9.230;2023-04-24T03:57:33;10.10;96.80
680;DHT22;322;48.846;9.230;2023-04-24T04:00:00;10.10;96.90
680;DHT22;322;48.846;9.230;2023-04-24T04:02:27;10.10;96.80
680;DHT22;322;48.846;9.230;2023-04-24T04:04:53;10.00;96.80
680;DHT22;322;48.846;9.230;2023-04-24T04:07:20;10.10;96.80
680;DHT22;322;48.846;9.230;2023-04-24T04:09:47;10.00;97.00
680;DHT22;322;48.846;9.230;2023-04-24T04:12:14;10.00;97.60
680;DHT22;322;48.846;9.230;2023-04-24T04:14:42;10.00;97.30
680;DHT22;322;48.846;9.230;2023-04-24T04:17:09;10.10;97.50
680;DHT22;322;48.846;9.230;2023-04-24T04:19:36;10.20;97.30
680;DHT22;322;48.846;9.230;2023-04-24T04:22:02;10.30;97.00
680;DHT22;322;48.846;9.230;2023-04-24T04:24:29;10.50;96.80
680;DHT22;322;48.846;9.230;2023-04-24T04:26:56;10.60;96.50
680;DHT22;322;48.846;9.230;2023-04-24T04:29:23;10.60;96.90
680;DHT22;322;48.846;9.230;2023-04-24T04:31:52;10.60;96.10
680;DHT22;322;48.846;9.230;2023-04-24T04:34:20;10.40;96.70
680;DHT22;322;48.846;9.230;2023-04-24T04:36:48;10.30;96.70
680;DHT22;322;48.846;9.230;2023-04-24T04:39:15;10.10;96.90
680;DHT22;322;48.846;9.230;2023-04-24T04:41:44;10.00;97.20
680;DHT22;322;48.846;9.230;2023-04-24T04:44:12;10.00;97.10
680;DHT22;322;48.846;9.230;2023-04-24T04:46:39;10.00;97.60
680;DHT22;322;48.846;9.230;2023-04-24T04:49:08;10.00;97.40
680;DHT22;322;48.846;9.230;2023-04-24T04:51:36;10.00;97.10
680;DHT22;322;48.846;9.230;2023-04-24T04:54:03;10.00;97.20
680;DHT22;322;48.846;9.230;2023-04-24T04:56:30;10.00;96.40
680;DHT22;322;48.846;9.230;2023-04-24T04:58:56;10.00;96.10
680;DHT22;322;48.846;9.230;2023-04-24T05:01:24;9.90;96.30
680;DHT22;322;48.846;9.230;2023-04-24T05:03:53;9.80;97.00
680;DHT22;322;48.846;9.230;2023-04-24T05:06:21;9.80;96.70
680;DHT22;322;48.846;9.230;2023-04-24T05:08:47;9.80;96.40
680;DHT22;322;48.846;9.230;2023-04-24T05:11:15;9.80;95.80
680;DHT22;322;48.846;9.230;2023-04-24T05:13:41;9.80;95.60
680;DHT22;322;48.846;9.230;2023-04-24T05:16:08;9.80;95.00
680;DHT22;322;48.846;9.230;2023-04-24T05:18:35;9.80;95.20
680;DHT22;322;48.846;9.230;2023-04-24T05:21:02;9.70;94.40
680;DHT22;322;48.846;9.230;2023-04-24T05:23:30;9.70;94.90
680;DHT22;322;48.846;9.230;2023-04-24T05:25:57;9.70;95.40
680;DHT22;322;48.846;9.230;2023-04-24T05:28:24;9.70;95.30
680;DHT22;322;48.846;9.230;2023-04-24T05:30:53;9.70;94.80
680;DHT22;322;48.846;9.230;2023-04-24T05:33:20;9.70;95.60
680;DHT22;322;48.846;9.230;2023-04-24T05:35:47;9.80;95.00
680;DHT22;322;48.846;9.230;2023-04-24T05:38:14;9.80;94.80
680;DHT22;322;48.846;9.230;2023-04-24T05:40:44;9.80;95.00
680;DHT22;322;48.846;9.230;2023-04-24T05:43:11;9.90;94.30
680;DHT22;322;48.846;9.230;2023-04-24T05:45:38;9.90;94.10
680;DHT22;322;48.846;9.230;2023-04-24T05:48:05;9.90;94.10
680;DHT22;322;48.846;9.230;2023-04-24T05:50:32;9.90;94.80
680;DHT22;322;48.846;9.230;2023-04-24T05:52:59;9.90;94.80
680;DHT22;322;48.846;9.230;2023-04-24T05:55:27;9.90;95.00
680;DHT22;322;48.846;9.230;2023-04-24T05:57:55;9.90;94.80
680;DHT22;322;48.846;9.230;2023-04-24T06:00:23;9.90;95.10
680;DHT22;322;48.846;9.230;2023-04-24T06:02:50;10.00;95.10
680;DHT22;322;48.846;9.230;2023-04-24T06:05:17;10.00;93.90
680;DHT22;322;48.846;9.230;2023-04-24T06:07:44;10.10;94.50
680;DHT22;322;48.846;9.230;2023-04-24T06:10:11;10.20;94.00
680;DHT22;322;48.846;9.230;2023-04-24T06:12:38;10.20;94.20
680;DHT22;322;48.846;9.230;2023-04-24T06:15:07;10.20;94.00
680;DHT22;322;48.846;9.230;2023-04-24T06:17:34;10.10;93.40
680;DHT22;322;48.846;9.230;2023-04-24T06:20:01;10.00;93.70
680;DHT22;322;48.846;9.230;2023-04-24T06:22:30;10.00;93.50
680;DHT22;322;48.846;9.230;2023-04-24T06:24:56;9.90;93.90
680;DHT22;322;48.846;9.230;2023-04-24T06:27:23;9.90;94.20
680;DHT22;322;48.846;9.230;2023-04-24T06:29:50;10.00;93.40
680;DHT22;322;48.846;9.230;2023-04-24T06:32:21;10.30;93.00
680;DHT22;322;48.846;9.230;2023-04-24T06:34:48;10.60;91.70
680;DHT22;322;48.846;9.230;2023-04-24T06:37:15;10.70;92.00
680;DHT22;322;48.846;9.230;2023-04-24T06:39:42;10.90;92.30
680;DHT22;322;48.846;9.230;2023-04-24T06:42:09;11.10;91.40
680;DHT22;322;48.846;9.230;2023-04-24T06:44:36;11.40;92.10
680;DHT22;322;48.846;9.230;2023-04-24T06:47:06;11.80;89.30
680;DHT22;322;48.846;9.230;2023-04-24T06:49:35;12.00;85.30
680;DHT22;322;48.846;9.230;2023-04-24T06:52:01;12.10;84.40
680;DHT22;322;48.846;9.230;2023-04-24T06:54:28;12.20;81.80
680;DHT22;322;48.846;9.230;2023-04-24T06:56:55;12.20;79.90
680;DHT22;322;48.846;9.230;2023-04-24T06:59:22;12.20;79.20
680;DHT22;322;48.846;9.230;2023-04-24T07:01:50;12.20;81.10
680;DHT22;322;48.846;9.230;2023-04-24T07:04:17;12.20;77.60
680;DHT22;322;48.846;9.230;2023-04-24T07:06:45;12.10;79.30
680;DHT22;322;48.846;9.230;2023-04-24T07:09:12;12.20;80.70
680;DHT22;322;48.846;9.230;2023-04-24T07:11:41;12.40;79.10
680;DHT22;322;48.846;9.230;2023-04-24T07:14:07;12.60;78.00
680;DHT22;322;48.846;9.230;2023-04-24T07:16:35;12.70;77.00
680;DHT22;322;48.846;9.230;2023-04-24T07:19:02;12.50;73.00
680;DHT22;322;48.846;9.230;2023-04-24T07:21:29;12.40;74.10
680;DHT22;322;48.846;9.230;2023-04-24T07:23:58;12.30;73.70
680;DHT22;322;48.846;9.230;2023-04-24T07:26:25;12.30;74.60
680;DHT22;322;48.846;9.230;2023-04-24T07:28:52;12.30;75.50
680;DHT22;322;48.846;9.230;2023-04-24T07:31:20;12.20;73.10
680;DHT22;322;48.846;9.230;2023-04-24T07:33:48;12.00;74.10
680;DHT22;322;48.846;9.230;2023-04-24T07:36:14;12.00;72.60
680;DHT22;322;48.846;9.230;2023-04-24T07:38:44;12.10;70.00
680;DHT22;322;48.846;9.230;2023-04-24T07:41:13;12.20;71.80
680;DHT22;322;48.846;9.230;2023-04-24T07:43:40;12.30;68.10
680;DHT22;322;48.846;9.230;2023-04-24T07:46:07;12.50;66.60
680;DHT22;322;48.846;9.230;2023-04-24T07:48:34;12.80;66.10
680;DHT22;322;48.846;9.230;2023-04-24T07:51:01;13.20;64.40
680;DHT22;322;48.846;9.230;2023-04-24T07:53:28;13.50;65.10
680;DHT22;322;48.846;9.230;2023-04-24T07:55:55;13.40;59.90
680;DHT22;322;48.846;9.230;2023-04-24T07:58:23;13.00;59.20
680;DHT22;322;48.846;9.230;2023-04-24T08:00:50;12.80;60.80
680;DHT22;322;48.846;9.230;2023-04-24T08:03:17;12.70;61.20
680;DHT22;322;48.846;9.230;2023-04-24T08:05:45;13.00;63.50
680;DHT22;322;48.846;9.230;2023-04-24T08:08:12;13.30;58.50
680;DHT22;322;48.846;9.230;2023-04-24T08:10:39;13.10;57.30
680;DHT22;322;48.846;9.230;2023-04-24T08:13:06;12.90;57.60
680;DHT22;322;48.846;9.230;2023-04-24T08:15:34;12.90;57.80
680;DHT22;322;48.846;9.230;2023-04-24T08:18:04;13.00;57.40
680;DHT22;322;48.846;9.230;2023-04-24T08:20:31;13.30;61.30
680;DHT22;322;48.846;9.230;2023-04-24T08:22:58;13.60;59.70
680;DHT22;322;48.846;9.230;2023-04-24T08:25:24;13.30;59.30
680;DHT22;322;48.846;9.230;2023-04-24T08:27:51;13.10;60.00
680;DHT22;322;48.846;9.230;2023-04-24T08:30:18;12.90;59.60
680;DHT22;322;48.846;9.230;2023-04-24T08:32:47;12.70;60.80
680;DHT22;322;48.846;9.230;2023-04-24T08:35:14;12.50;61.20
680;DHT22;322;48.846;9.230;2023-04-24T08:37:41;12.40;63.20
680;DHT22;322;48.846;9.230;2023-04-24T08:40:12;12.50;60.10
680;DHT22;322;48.846;9.230;2023-04-24T08:42:41;12.40;59.50
680;DHT22;322;48.846;9.230;2023-04-24T08:45:10;12.40;59.10
680;DHT22;322;48.846;9.230;2023-04-24T08:47:38;12.40;58.80
680;DHT22;322;48.846;9.230;2023-04-24T08:50:07;12.50;60.10
680;DHT22;322;48.846;9.230;2023-04-24T08:52:35;12.60;59.00
680;DHT22;322;48.846;9.230;2023-04-24T08:55:02;12.30;57.30
680;DHT22;322;48.846;9.230;2023-04-24T08:57:30;12.10;57.70
680;DHT22;322;48.846;9.230;2023-04-24T08:59:58;12.20;57.50
680;DHT22;322;48.846;9.230;2023-04-24T09:02:25;12.40;56.90
680;DHT22;322;48.846;9.230;2023-04-24T09:04:53;12.60;57.00
680;DHT22;322;48.846;9.230;2023-04-24T09:07:24;12.60;57.60
680;DHT22;322;48.846;9.230;2023-04-24T09:09:52;12.70;56.90
680;DHT22;322;48.846;9.230;2023-04-24T09:12:19;12.70;56.30
680;DHT22;322;48.846;9.230;2023-04-24T09:14:48;12.60;56.20
680;DHT22;322;48.846;9.230;2023-04-24T09:17:15;12.70;56.00
680;DHT22;322;48.846;9.230;2023-04-24T09:19:42;12.60;56.90
680;DHT22;322;48.846;9.230;2023-04-24T09:22:09;12.50;56.30
680;DHT22;322;48.846;9.230;2023-04-24T09:24:40;12.40;57.50
680;DHT22;322;48.846;9.230;2023-04-24T09:27:07;12.40;56.50
680;DHT22;322;48.846;9.230;2023-04-24T09:29:37;12.10;58.80
680;DHT22;322;48.846;9.230;2023-04-24T09:32:18;11.70;68.70
680;DHT22;322;48.846;9.230;2023-04-24T09:34:47;11.10;66.30
680;DHT22;322;48.846;9.230;2023-04-24T09:37:27;11.10;67.10
680;DHT22;322;48.846;9.230;2023-04-24T09:40:12;11.40;65.30
680;DHT22;322;48.846;9.230;2023-04-24T09:42:39;11.80;61.70
680;DHT22;322;48.846;9.230;2023-04-24T09:45:09;12.40;60.20
680;DHT22;322;48.846;9.230;2023-04-24T09:47:38;12.60;58.30
680;DHT22;322;48.846;9.230;2023-04-24T09:50:13;12.80;57.30
680;DHT22;322;48.846;9.230;2023-04-24T09:52:41;13.40;58.80
680;DHT22;322;48.846;9.230;2023-04-24T09:55:17;14.10;56.20
680;DHT22;322;48.846;9.230;2023-04-24T09:57:48;14.90;53.30
680;DHT22;322;48.846;9.230;2023-04-24T10:00:18;15.40;53.70
680;DHT22;322;48.846;9.230;2023-04-24T10:02:50;14.40;51.50
680;DHT22;322;48.846;9.230;2023-04-24T10:05:17;13.40;53.50
680;DHT22;322;48.846;9.230;2023-04-24T10:07:44;13.50;54.00
680;DHT22;322;48.846;9.230;2023-04-24T10:10:11;13.60;54.30
680;DHT22;322;48.846;9.230;2023-04-24T10:12:40;13.90;53.10
680;DHT22;322;48.846;9.230;2023-04-24T10:15:09;13.90;52.50
680;DHT22;322;48.846;9.230;2023-04-24T10:17:37;13.80;51.70
680;DHT22;322;48.846;9.230;2023-04-24T10:20:06;13.60;54.90
680;DHT22;322;48.846;9.230;2023-04-24T10:22:34;14.20;53.20
680;DHT22;322;48.846;9.230;2023-04-24T10:25:04;14.60;50.30
680;DHT22;322;48.846;9.230;2023-04-24T10:27:32;14.90;50.20
680;DHT22;322;48.846;9.230;2023-04-24T10:30:01;14.80;50.00
680;DHT22;322;48.846;9.230;2023-04-24T10:32:28;13.80;49.40
680;DHT22;322;48.846;9.230;2023-04-24T10:34:57;13.30;51.10
680;DHT22;322;48.846;9.230;2023-04-24T10:37:25;12.80;51.20
680;DHT22;322;48.846;9.230;2023-04-24T10:39:52;12.60;52.30
680;DHT22;322;48.846;9.230;2023-04-24T10:42:20;12.50;52.90
680;DHT22;322;48.846;9.230;2023-04-24T10:44:47;12.30;52.70
680;DHT22;322;48.846;9.230;2023-04-24T10:47:16;12.20;53.40
680;DHT22;322;48.846;9.230;2023-04-24T10:49:43;12.00;53.10
680;DHT22;322;48.846;9.230;2023-04-24T10:52:10;12.10;54.10
680;DHT22;322;48.846;9.230;2023-04-24T10:54:42;12.20;53.90
680;DHT22;322;48.846;9.230;2023-04-24T10:57:28;12.30;53.90
680;DHT22;322;48.846;9.230;2023-04-24T11:00:20;12.50;52.90
680;DHT22;322;48.846;9.230;2023-04-24T11:02:48;12.70;52.80
680;DHT22;322;48.846;9.230;2023-04-24T11:05:19;12.80;53.20
680;DHT22;322;48.846;9.230;2023-04-24T11:08:26;12.80;52.60
680;DHT22;322;48.846;9.230;2023-04-24T11:11:02;13.00;53.20
680;DHT22;322;48.846;9.230;2023-04-24T11:14:06;13.10;52.90
680;DHT22;322;48.846;9.230;2023-04-24T11:16:35;13.20;53.30
680;DHT22;322;48.846;9.230;2023-04-24T11:19:06;13.50;51.20
680;DHT22;322;48.846;9.230;2023-04-24T11:21:41;13.40;51.00
680;DHT22;322;48.846;9.230;2023-04-24T11:24:32;13.30;51.40
680;DHT22;322;48.846;9.230;2023-04-24T11:27:11;13.50;53.10
680;DHT22;322;48.846;9.230;2023-04-24T11:29:41;13.50;51.70
680;DHT22;322;48.846;9.230;2023-04-24T11:32:17;13.60;50.90
680;DHT22;322;48.846;9.230;2023-04-24T11:34:47;13.80;51.10
680;DHT22;322;48.846;9.230;2023-04-24T11:37:14;14.10;50.70
680;DHT22;322;48.846;9.230;2023-04-24T11:39:41;14.10;49.00
680;DHT22;322;48.846;9.230;2023-04-24T11:42:09;14.00;49.40
680;DHT22;322;48.846;9.230;2023-04-24T11:44:36;13.90;50.30
680;DHT22;322;48.846;9.230;2023-04-24T11:47:04;14.00;50.70
680;DHT22;322;48.846;9.230;2023-04-24T11:49:32;14.00;50.40
680;DHT22;322;48.846;9.230;2023-04-24T11:52:01;13.50;52.00
680;DHT22;322;48.846;9.230;2023-04-24T11:54:28;13.20;52.80
680;DHT22;322;48.846;9.230;2023-04-24T11:56:56;12.80;53.30
680;DHT22;322;48.846;9.230;2023-04-24T11:59:23;12.60;53.70
680;DHT22;322;48.846;9.230;2023-04-24T12:01:50;12.60;55.10
680;DHT22;322;48.846;9.230;2023-04-24T12:04:17;13.00;54.80
680;DHT22;322;48.846;9.230;2023-04-24T12:07:01;13.50;54.00
680;DHT22;322;48.846;9.230;2023-04-24T12:09:28;13.60;51.60
680;DHT22;322;48.846;9.230;2023-04-24T12:11:55;13.80;53.20
680;DHT22;322;48.846;9.230;2023-04-24T12:14:23;13.70;50.60
680;DHT22;322;48.846;9.230;2023-04-24T12:16:51;13.60;50.70
680;DHT22;322;48.846;9.230;2023-04-24T12:19:20;13.40;51.80
680;DHT22;322;48.846;9.230;2023-04-24T12:22:01;13.20;52.70
680;DHT22;322;48.846;9.230;2023-04-24T12:24:28;12.80;52.90
680;DHT22;322;48.846;9.230;2023-04-24T12:26:56;12.60;54.70
680;DHT22;322;48.846;9.230;2023-04-24T12:29:23;12.50;58.20
680;DHT22;322;48.846;9.230;2023-04-24T12:31:50;12.20;58.80
680;DHT22;322;48.846;9.230;2023-04-24T12:34:18;12.20;58.30
680;DHT22;322;48.846;9.230;2023-04-24T12:36:46;12.50;58.00
680;DHT22;322;48.846;9.230;2023-04-24T12:39:18;12.80;55.50
680;DHT22;322;48.846;9.230;2023-04-24T12:41:54;12.70;55.00
680;DHT22;322;48.846;9.230;2023-04-24T12:44:29;12.60;55.50
680;DHT22;322;48.846;9.230;2023-04-24T12:46:56;12.40;54.90
680;DHT22;322;48.846;9.230;2023-04-24T12:49:23;12.50;56.20
680;DHT22;322;48.846;9.230;2023-04-24T12:51:50;12.70;54.60
680;DHT22;322;48.846;9.230;2023-04-24T12:54:18;12.90;54.70
680;DHT22;322;48.846;9.230;2023-04-24T12:56:47;12.90;54.20
680;DHT22;322;48.846;9.230;2023-04-24T12:59:13;12.70;53.90
680;DHT22;322;48.846;9.230;2023-04-24T13:01:41;12.60;54.40
680;DHT22;322;48.846;9.230;2023-04-24T13:04:07;12.50;56.00
680;DHT22;322;48.846;9.230;2023-04-24T13:06:34;12.30;57.90
680;DHT22;322;48.846;9.230;2023-04-24T13:09:01;11.80;62.90
680;DHT22;322;48.846;9.230;2023-04-24T13:11:29;12.00;69.90
680;DHT22;322;48.846;9.230;2023-04-24T13:13:56;12.60;64.50
680;DHT22;322;48.846;9.230;2023-04-24T13:16:23;13.50;61.90
680;DHT22;322;48.846;9.230;2023-04-24T13:18:50;13.90;56.00
680;DHT22;322;48.846;9.230;2023-04-24T13:21:17;14.60;54.40
680;DHT22;322;48.846;9.230;2023-04-24T13:23:43;14.80;52.40
680;DHT22;322;48.846;9.230;2023-04-24T13:26:10;14.80;52.30
680;DHT22;322;48.846;9.230;2023-04-24T13:28:38;13.90;53.70
680;DHT22;322;48.846;9.230;2023-04-24T13:31:05;13.50;54.90
680;DHT22;322;48.846;9.230;2023-04-24T13:33:32;13.50;55.90
680;DHT22;322;48.846;9.230;2023-04-24T13:35:59;13.50;56.90
680;DHT22;322;48.846;9.230;2023-04-24T13:38:26;14.20;54.90
680;DHT22;322;48.846;9.230;2023-04-24T13:40:53;14.80;53.30
680;DHT22;322;48.846;9.230;2023-04-24T13:43:20;14.30;52.90
680;DHT22;322;48.846;9.230;2023-04-24T13:45:48;13.80;54.70
680;DHT22;322;48.846;9.230;2023-04-24T13:48:15;13.40;56.60
680;DHT22;322;48.846;9.230;2023-04-24T13:50:42;12.80;56.30
680;DHT22;322;48.846;9.230;2023-04-24T13:53:09;12.60;58.20
680;DHT22;322;48.846;9.230;2023-04-24T13:55:36;12.70;58.00
680;DHT22;322;48.846;9.230;2023-04-24T13:58:04;13.70;57.10
680;DHT22;322;48.846;9.230;2023-04-24T14:00:32;15.30;51.40
680;DHT22;322;48.846;9.230;2023-04-24T14:03:00;16.20;50.80
680;DHT22;322;48.846;9.230;2023-04-24T14:05:26;16.60;49.00
680;DHT22;322;48.846;9.230;2023-04-24T14:07:53;16.40;49.30
680;DHT22;322;48.846;9.230;2023-04-24T14:10:20;14.90;51.60
680;DHT22;322;48.846;9.230;2023-04-24T14:12:47;14.60;53.50
680;DHT22;322;48.846;9.230;2023-04-24T14:15:14;15.20;52.20
680;DHT22;322;48.846;9.230;2023-04-24T14:17:42;14.90;53.70
680;DHT22;322;48.846;9.230;2023-04-24T14:20:11;14.90;54.20
680;DHT22;322;48.846;9.230;2023-04-24T14:22:38;15.60;51.50
680;DHT22;322;48.846;9.230;2023-04-24T14:25:08;16.40;49.60
680;DHT22;322;48.846;9.230;2023-04-24T14:27:35;15.70;49.90
680;DHT22;322;48.846;9.230;2023-04-24T14:30:02;14.60;52.90
680;DHT22;322;48.846;9.230;2023-04-24T14:32:29;14.50;53.50
680;DHT22;322;48.846;9.230;2023-04-24T14:34:56;15.00;53.30
680;DHT22;322;48.846;9.230;2023-04-24T14:37:24;16.00;50.50
680;DHT22;322;48.846;9.230;2023-04-24T14:39:51;16.70;48.30
680;DHT22;322;48.846;9.230;2023-04-24T14:42:18;17.30;48.00
680;DHT22;322;48.846;9.230;2023-04-24T14:44:45;17.00;47.00
680;DHT22;322;48.846;9.230;2023-04-24T14:47:11;15.90;48.90
680;DHT22;322;48.846;9.230;2023-04-24T14:49:38;14.80;51.60
680;DHT22;322;48.846;9.230;2023-04-24T14:52:05;14.70;53.70
680;DHT22;322;48.846;9.230;2023-04-24T14:54:33;16.00;52.00
680;DHT22;322;48.846;9.230;2023-04-24T14:57:00;16.60;48.70
680;DHT22;322;48.846;9.230;2023-04-24T14:59:27;17.00;49.00
680;DHT22;322;48.846;9.230;2023-04-24T15:01:54;16.70;48.20
680;DHT22;322;48.846;9.230;2023-04-24T15:04:23;16.20;49.50
680;DHT22;322;48.846;9.230;2023-04-24T15:06:51;15.80;48.70
680;DHT22;322;48.846;9.230;2023-04-24T15:09:19;15.90;50.70
680;DHT22;322;48.846;9.230;2023-04-24T15:11:47;16.90;48.80
680;DHT22;322;48.846;9.230;2023-04-24T15:14:14;17.80;46.30
680;DHT22;322;48.846;9.230;2023-04-24T15:16:41;17.40;46.40
680;DHT22;322;48.846;9.230;2023-04-24T15:19:08;15.50;48.70
680;DHT22;322;48.846;9.230;2023-04-24T15:21:36;14.30;50.90
680;DHT22;322;48.846;9.230;2023-04-24T15:24:03;13.60;52.40
680;DHT22;322;48.846;9.230;2023-04-24T15:26:30;13.20;54.00
680;DHT22;322;48.846;9.230;2023-04-24T15:28:58;13.10;54.40
680;DHT22;322;48.846;9.230;2023-04-24T15:31:25;13.10;55.70
680;DHT22;322;48.846;9.230;2023-04-24T15:33:52;13.10;54.90
680;DHT22;322;48.846;9.230;2023-04-24T15:36:19;12.90;55.70
680;DHT22;322;48.846;9.230;2023-04-24T15:38:46;12.80;56.10
680;DHT22;322;48.846;9.230;2023-04-24T15:41:13;12.80;58.20
680;DHT22;322;48.846;9.230;2023-04-24T15:43:40;13.00;58.10
680;DHT22;322;48.846;9.230;2023-04-24T15:46:10;13.30;57.40
680;DHT22;322;48.846;9.230;2023-04-24T15:48:36;14.10;57.10
680;DHT22;322;48.846;9.230;2023-04-24T15:51:06;14.40;54.90
680;DHT22;322;48.846;9.230;2023-04-24T15:53:33;14.50;54.80
680;DHT22;322;48.846;9.230;2023-04-24T15:56:00;14.80;54.10
680;DHT22;322;48.846;9.230;2023-04-24T15:58:27;14.40;53.90
680;DHT22;322;48.846;9.230;2023-04-24T16:00:54;14.90;54.60
680;DHT22;322;48.846;9.230;2023-04-24T16:03:23;16.10;51.70
680;DHT22;322;48.846;9.230;2023-04-24T16:05:49;16.70;51.30
680;DHT22;322;48.846;9.230;2023-04-24T16:08:16;17.40;50.10
680;DHT22;322;48.846;9.230;2023-04-24T16:10:43;18.30;49.00
680;DHT22;322;48.846;9.230;2023-04-24T16:13:11;18.40;47.70
680;DHT22;322;48.846;9.230;2023-04-24T16:15:38;17.50;48.90
680;DHT22;322;48.846;9.230;2023-04-24T16:18:06;17.50;47.90
680;DHT22;322;48.846;9.230;2023-04-24T16:20:34;17.90;48.40
680;DHT22;322;48.846;9.230;2023-04-24T16:23:01;18.50;46.90
680;DHT22;322;48.846;9.230;2023-04-24T16:25:28;18.30;45.80
680;DHT22;322;48.846;9.230;2023-04-24T16:27:55;17.70;46.40
680;DHT22;322;48.846;9.230;2023-04-24T16:30:22;17.30;47.40
680;DHT22;322;48.846;9.230;2023-04-24T16:32:49;17.20;49.50
680;DHT22;322;48.846;9.230;2023-04-24T16:35:16;17.10;48.80
680;DHT22;322;48.846;9.230;2023-04-24T16:37:44;17.20;50.10
680;DHT22;322;48.846;9.230;2023-04-24T16:40:11;17.50;49.10
680;DHT22;322;48.846;9.230;2023-04-24T16:42:38;17.00;49.10